createdAt,value
2019-04-01T00:01:13.189Z,3.60
2019-04-01T00:03:42.505Z,3.60
2019-04-01T00:06:11.813Z,3.60
2019-04-01T00:08:41.129Z,3.50
2019-04-01T00:11:10.434Z,3.50
2019-04-01T00:13:39.750Z,3.50
2019-04-01T00:16:09.047Z,3.50
2019-04-01T00:18:38.348Z,3.50
2019-04-01T00:21:07.645Z,3.50
2019-04-01T00:23:36.945Z,3.50
2019-04-01T00:26:07.260Z,3.50
2019-04-01T00:28:36.558Z,3.50
2019-04-01T00:31:05.860Z,3.50
2019-04-01T00:33:35.157Z,3.40
2019-04-01T00:36:04.531Z,3.40
2019-04-01T00:38:33.939Z,3.40
2019-04-01T00:41:03.530Z,3.30
2019-04-01T00:43:41.622Z,3.30
2019-04-01T00:46:12.292Z,3.20
2019-04-01T00:48:41.597Z,3.10
2019-04-01T00:51:10.893Z,3.00
2019-04-01T00:53:40.202Z,2.80
2019-04-01T00:56:09.504Z,2.50
2019-04-01T00:58:38.805Z,2.30
2019-04-01T01:01:09.759Z,2.20
2019-04-01T01:03:39.057Z,2.10
2019-04-01T01:06:09.330Z,2.00
2019-04-01T01:08:38.633Z,2.00
2019-04-01T01:11:07.942Z,1.90
2019-04-01T01:13:37.255Z,1.90
2019-04-01T01:16:07.523Z,1.90
2019-04-01T01:18:36.822Z,1.80
2019-04-01T01:21:06.119Z,1.80
2019-04-01T01:23:35.580Z,1.80
2019-04-01T01:26:04.884Z,1.80
2019-04-01T01:28:34.284Z,1.70
2019-04-01T01:31:03.589Z,1.70
2019-04-01T01:33:32.894Z,1.70
2019-04-01T01:36:02.213Z,1.70
2019-04-01T01:38:31.517Z,1.60
2019-04-01T01:41:00.808Z,1.60
2019-04-01T01:43:30.095Z,1.50
2019-04-01T01:45:59.564Z,1.50
2019-04-01T01:48:28.878Z,1.60
2019-04-01T01:50:58.286Z,1.70
2019-04-01T01:53:28.752Z,1.80
2019-04-01T01:55:58.068Z,1.90
2019-04-01T01:58:27.369Z,2.00
2019-04-01T02:00:57.232Z,2.00
2019-04-01T02:03:26.893Z,2.10
2019-04-01T02:05:56.193Z,2.10
2019-04-01T02:08:25.488Z,2.10
2019-04-01T02:10:54.785Z,2.10
2019-04-01T02:13:25.048Z,2.20
2019-04-01T02:15:54.344Z,2.20
2019-04-01T02:18:24.559Z,2.20
2019-04-01T02:20:53.850Z,2.20
2019-04-01T02:23:23.175Z,2.20
2019-04-01T02:25:52.507Z,2.20
2019-04-01T02:28:21.796Z,2.10
2019-04-01T02:30:51.121Z,2.20
2019-04-01T02:33:20.497Z,2.20
2019-04-01T02:35:49.791Z,2.20
2019-04-01T02:38:19.091Z,2.20
2019-04-01T02:40:49.633Z,2.20
2019-04-01T02:43:18.927Z,2.10
2019-04-01T02:45:48.211Z,2.10
2019-04-01T02:48:17.520Z,2.00
2019-04-01T02:50:46.817Z,2.10
2019-04-01T02:53:16.200Z,2.00
2019-04-01T02:55:45.599Z,2.00
2019-04-01T02:58:14.920Z,1.90
2019-04-01T03:00:44.558Z,1.80
2019-04-01T03:03:13.853Z,1.80
2019-04-01T03:05:44.694Z,1.70
2019-04-01T03:08:14.008Z,1.50
2019-04-01T03:10:43.301Z,1.50
2019-04-01T03:13:12.593Z,1.50
2019-04-01T03:15:41.934Z,1.40
2019-04-01T03:18:11.224Z,1.30
2019-04-01T03:20:41.461Z,1.30
2019-04-01T03:23:10.754Z,1.30
2019-04-01T03:25:40.045Z,1.30
2019-04-01T03:28:09.333Z,1.40
2019-04-01T03:30:39.449Z,1.40
2019-04-01T03:33:09.813Z,1.40
2019-04-01T03:35:39.107Z,1.30
2019-04-01T03:38:20.864Z,1.40
2019-04-01T03:40:50.222Z,1.30
2019-04-01T03:43:19.507Z,1.40
2019-04-01T03:45:48.799Z,1.40
2019-04-01T03:48:18.096Z,1.40
2019-04-01T03:50:47.419Z,1.40
2019-04-01T03:53:16.710Z,1.40
2019-04-01T03:55:46.010Z,1.50
2019-04-01T03:58:15.296Z,1.50
2019-04-01T04:00:44.608Z,1.50
2019-04-01T04:03:13.897Z,1.50
2019-04-01T04:05:43.193Z,1.30
2019-04-01T04:08:12.784Z,1.40
2019-04-01T04:10:42.074Z,1.40
2019-04-01T04:13:11.383Z,1.30
2019-04-01T04:15:40.801Z,1.30
2019-04-01T04:18:10.112Z,1.20
2019-04-01T04:20:39.397Z,1.20
2019-04-01T04:23:08.689Z,1.10
2019-04-01T04:25:37.999Z,1.10
2019-04-01T04:28:07.293Z,1.00
2019-04-01T04:30:36.595Z,1.00
2019-04-01T04:33:07.358Z,1.00
2019-04-01T04:35:36.636Z,1.00
2019-04-01T04:38:05.933Z,1.00
2019-04-01T04:40:35.236Z,0.90
2019-04-01T04:43:04.535Z,0.90
2019-04-01T04:45:33.826Z,0.80
2019-04-01T04:48:03.191Z,0.80
2019-04-01T04:50:32.505Z,0.80
2019-04-01T04:53:02.368Z,0.80
2019-04-01T04:55:31.664Z,0.70
2019-04-01T04:58:00.955Z,0.70
2019-04-01T05:00:30.304Z,0.70
2019-04-01T05:02:59.675Z,0.70
2019-04-01T05:05:28.995Z,0.70
2019-04-01T05:07:58.284Z,0.70
2019-04-01T05:10:28.657Z,0.80
2019-04-01T05:12:58.785Z,0.70
2019-04-01T05:15:28.086Z,0.70
2019-04-01T05:17:57.413Z,0.70
2019-04-01T05:20:27.377Z,0.70
2019-04-01T05:22:56.663Z,0.70
2019-04-01T05:25:26.211Z,0.70
2019-04-01T05:27:58.716Z,0.70
2019-04-01T05:30:31.366Z,0.80
2019-04-01T05:33:03.420Z,0.80
2019-04-01T05:35:37.036Z,0.80
2019-04-01T05:38:07.104Z,0.80
2019-04-01T05:40:37.015Z,0.90
2019-04-01T05:43:06.319Z,1.00
2019-04-01T05:45:35.671Z,0.90
2019-04-01T05:48:06.120Z,1.00
2019-04-01T05:50:35.412Z,1.00
2019-04-01T05:53:05.049Z,1.10
2019-04-01T05:55:34.505Z,1.20
2019-04-01T05:58:03.868Z,1.30
2019-04-01T06:00:34.818Z,1.50
2019-04-01T06:03:04.349Z,1.50
2019-04-01T06:05:33.648Z,1.60
2019-04-01T06:08:03.312Z,1.70
2019-04-01T06:10:34.248Z,1.80
2019-04-01T06:13:03.540Z,1.90
2019-04-01T06:15:32.840Z,2.00
2019-04-01T06:18:02.216Z,2.10
2019-04-01T06:20:31.570Z,2.20
2019-04-01T06:23:00.933Z,2.40
2019-04-01T06:25:30.236Z,2.50
2019-04-01T06:27:59.531Z,2.70
2019-04-01T06:30:28.840Z,2.80
2019-04-01T06:32:58.203Z,2.90
2019-04-01T06:35:27.501Z,2.90
2019-04-01T06:37:56.795Z,3.00
2019-04-01T06:40:26.092Z,3.00
2019-04-01T06:42:55.389Z,3.20
2019-04-01T06:45:24.675Z,3.30
2019-04-01T06:47:53.968Z,3.30
2019-04-01T06:50:23.283Z,3.50
2019-04-01T06:52:52.571Z,3.60
2019-04-01T06:55:21.864Z,3.80
2019-04-01T06:57:51.597Z,3.90
2019-04-01T07:00:20.889Z,4.20
2019-04-01T07:02:51.893Z,4.50
2019-04-01T07:05:21.185Z,4.90
2019-04-01T07:07:50.644Z,5.40
2019-04-01T07:10:19.954Z,5.70
2019-04-01T07:12:51.156Z,6.00
2019-04-01T07:15:20.444Z,6.20
2019-04-01T07:17:49.743Z,6.30
2019-04-01T07:20:19.031Z,6.40
2019-04-01T07:22:49.387Z,6.50
2019-04-01T07:25:18.675Z,6.80
2019-04-01T07:27:48.039Z,6.90
2019-04-01T07:30:17.502Z,6.90
2019-04-01T07:32:46.797Z,7.20
2019-04-01T07:35:16.083Z,7.50
2019-04-01T07:37:45.384Z,7.80
2019-04-01T07:40:15.263Z,7.80
2019-04-01T07:42:44.553Z,7.90
2019-04-01T07:45:13.907Z,8.00
2019-04-01T07:47:43.208Z,8.20
2019-04-01T07:50:13.046Z,8.40
2019-04-01T07:52:42.516Z,8.60
2019-04-01T07:55:11.983Z,8.70
2019-04-01T07:57:41.271Z,8.80
2019-04-01T08:00:11.876Z,8.90
2019-04-01T08:02:41.207Z,9.20
2019-04-01T08:05:10.871Z,9.30
2019-04-01T08:07:40.160Z,9.40
2019-04-01T08:10:09.960Z,9.20
2019-04-01T08:12:39.243Z,9.30
2019-04-01T08:15:10.544Z,9.50
2019-04-01T08:17:39.851Z,10.00
2019-04-01T08:20:09.400Z,10.10
2019-04-01T08:22:38.717Z,10.50
2019-04-01T08:25:08.260Z,10.70
2019-04-01T08:27:37.557Z,10.30
2019-04-01T08:30:08.596Z,10.40
2019-04-01T08:32:37.904Z,10.90
2019-04-01T08:35:08.620Z,11.00
2019-04-01T08:37:40.195Z,11.10
2019-04-01T08:40:09.173Z,10.80
2019-04-01T08:42:38.655Z,10.90
2019-04-01T08:45:09.148Z,11.30
2019-04-01T08:47:38.632Z,11.50
2019-04-01T08:50:08.761Z,11.70
2019-04-01T08:52:39.188Z,12.00
2019-04-01T08:55:08.829Z,11.90
2019-04-01T08:57:38.209Z,12.00
2019-04-01T09:00:08.621Z,12.40
2019-04-01T09:02:37.920Z,12.50
2019-04-01T09:05:07.593Z,12.70
2019-04-01T09:07:36.889Z,13.10
2019-04-01T09:10:06.936Z,13.20
2019-04-01T09:12:36.556Z,12.80
2019-04-01T09:15:06.394Z,13.40
2019-04-01T09:17:40.032Z,13.50
2019-04-01T09:20:07.951Z,13.40
2019-04-01T09:22:37.276Z,13.40
2019-04-01T09:25:06.923Z,13.30
2019-04-01T09:27:36.224Z,13.10
2019-04-01T09:30:08.659Z,13.10
2019-04-01T09:32:37.948Z,13.40
2019-04-01T09:35:08.004Z,13.40
2019-04-01T09:37:38.294Z,13.50
2019-04-01T09:40:08.032Z,13.40
2019-04-01T09:42:37.605Z,13.80
2019-04-01T09:45:07.848Z,13.80
2019-04-01T09:47:37.148Z,14.30
2019-04-01T09:50:07.185Z,14.20
2019-04-01T09:52:36.508Z,14.10
2019-04-01T09:55:07.344Z,13.80
2019-04-01T09:57:36.646Z,13.50
2019-04-01T10:00:08.752Z,13.80
2019-04-01T10:02:38.220Z,13.90
2019-04-01T10:05:08.645Z,14.10
2019-04-01T10:07:38.091Z,14.30
2019-04-01T10:10:07.860Z,14.50
2019-04-01T10:12:37.159Z,15.00
2019-04-01T10:15:07.584Z,15.20
2019-04-01T10:17:36.977Z,15.30
2019-04-01T10:20:08.217Z,15.50
2019-04-01T10:22:37.520Z,15.60
2019-04-01T10:25:07.464Z,15.30
2019-04-01T10:27:37.737Z,15.40
2019-04-01T10:30:09.092Z,15.30
2019-04-01T10:32:38.565Z,15.20
2019-04-01T10:35:09.503Z,15.40
2019-04-01T10:37:38.796Z,15.60
2019-04-01T10:40:08.642Z,16.30
2019-04-01T10:42:38.850Z,15.90
2019-04-01T10:45:10.088Z,15.90
2019-04-01T10:47:39.521Z,16.10
2019-04-01T10:50:09.506Z,16.10
2019-04-01T10:52:39.762Z,16.40
2019-04-01T10:55:09.916Z,16.80
2019-04-01T10:57:39.307Z,16.50
2019-04-01T11:00:09.073Z,16.80
2019-04-01T11:02:38.437Z,17.10
2019-04-01T11:05:08.609Z,17.20
2019-04-01T11:07:37.997Z,17.40
2019-04-01T11:10:11.143Z,17.10
2019-04-01T11:12:38.821Z,17.30
2019-04-01T11:15:09.162Z,17.30
2019-04-01T11:17:38.832Z,17.30
2019-04-01T11:20:09.563Z,17.00
2019-04-01T11:22:38.868Z,17.10
2019-04-01T11:25:09.323Z,16.60
2019-04-01T11:27:38.624Z,17.00
2019-04-01T11:30:08.659Z,17.20
2019-04-01T11:32:38.157Z,17.40
2019-04-01T11:35:09.082Z,17.70
2019-04-01T11:37:38.392Z,17.10
2019-04-01T11:40:11.457Z,16.80
2019-04-01T11:42:40.843Z,17.50
2019-04-01T11:45:11.019Z,17.80
2019-04-01T11:47:40.361Z,17.80
2019-04-01T11:50:09.897Z,17.60
2019-04-01T11:52:39.201Z,17.00
2019-04-01T11:55:09.149Z,17.20
2019-04-01T11:57:40.525Z,17.80
2019-04-01T12:00:13.478Z,18.20
2019-04-01T12:02:43.300Z,18.30
2019-04-01T12:05:12.702Z,18.20
2019-04-01T12:07:41.998Z,18.20
2019-04-01T12:10:11.465Z,18.30
2019-04-01T12:12:40.775Z,17.70
2019-04-01T12:15:12.320Z,17.20
2019-04-01T12:17:42.760Z,17.60
2019-04-01T12:20:12.233Z,18.10
2019-04-01T12:22:45.453Z,18.20
2019-04-01T12:25:12.532Z,18.00
2019-04-01T12:27:41.998Z,17.60
2019-04-01T12:30:11.480Z,17.50
2019-04-01T12:32:40.790Z,17.90
2019-04-01T12:35:10.268Z,17.50
2019-04-01T12:37:39.600Z,17.30
2019-04-01T12:40:09.836Z,18.10
2019-04-01T12:42:39.147Z,17.80
2019-04-01T12:45:10.494Z,17.40
2019-04-01T12:47:42.867Z,18.10
2019-04-01T12:50:12.371Z,19.00
2019-04-01T12:52:41.720Z,19.60
2019-04-01T12:55:11.459Z,19.50
2019-04-01T12:57:40.758Z,18.80
2019-04-01T13:00:11.717Z,18.40
2019-04-01T13:02:41.072Z,18.80
2019-04-01T13:05:10.608Z,18.80
2019-04-01T13:07:39.913Z,18.60
2019-04-01T13:10:10.876Z,18.90
2019-04-01T13:12:40.182Z,18.60
2019-04-01T13:15:10.027Z,18.90
2019-04-01T13:17:39.327Z,19.30
2019-04-01T13:20:10.704Z,19.30
2019-04-01T13:22:40.021Z,19.00
2019-04-01T13:25:09.484Z,19.10
2019-04-01T13:27:38.780Z,19.30
2019-04-01T13:30:08.081Z,19.00
2019-04-01T13:32:37.381Z,18.40
2019-04-01T13:35:07.036Z,18.40
2019-04-01T13:37:36.331Z,18.30
2019-04-01T13:40:06.863Z,18.70
2019-04-01T13:42:36.165Z,18.80
2019-04-01T13:45:09.107Z,19.10
2019-04-01T13:47:41.095Z,19.00
2019-04-01T13:50:09.873Z,19.90
2019-04-01T13:52:39.164Z,20.70
2019-04-01T13:55:09.888Z,20.50
2019-04-01T13:57:39.376Z,20.60
2019-04-01T14:00:09.255Z,20.70
2019-04-01T14:02:39.560Z,20.60
2019-04-01T14:05:09.304Z,20.70
2019-04-01T14:07:38.612Z,20.90
2019-04-01T14:10:08.257Z,21.60
2019-04-01T14:12:37.555Z,21.40
2019-04-01T14:15:08.252Z,22.70
2019-04-01T14:17:37.548Z,22.10
2019-04-01T14:20:07.489Z,21.50
2019-04-01T14:22:37.829Z,22.20
2019-04-01T14:25:07.702Z,22.40
2019-04-01T14:27:37.366Z,22.20
2019-04-01T14:30:07.562Z,21.90
2019-04-01T14:32:36.859Z,22.20
2019-04-01T14:35:07.309Z,21.70
2019-04-01T14:37:36.605Z,22.20
2019-04-01T14:40:08.785Z,23.10
2019-04-01T14:42:39.671Z,23.60
2019-04-01T14:45:10.099Z,23.50
2019-04-01T14:47:55.893Z,23.60
2019-04-01T14:50:11.517Z,22.50
2019-04-01T14:52:41.790Z,23.10
2019-04-01T14:55:11.417Z,22.50
2019-04-01T14:57:40.712Z,22.60
2019-04-01T15:00:12.640Z,22.40
2019-04-01T15:02:42.004Z,22.90
2019-04-01T15:05:11.572Z,23.10
2019-04-01T15:07:40.883Z,22.90
2019-04-01T15:10:11.227Z,22.60
2019-04-01T15:12:40.530Z,22.60
2019-04-01T15:15:10.504Z,22.00
2019-04-01T15:17:39.808Z,22.40
2019-04-01T15:20:09.344Z,22.50
2019-04-01T15:22:38.644Z,22.50
2019-04-01T15:25:08.580Z,22.70
2019-04-01T15:27:37.896Z,21.50
2019-04-01T15:30:09.119Z,22.00
2019-04-01T15:32:38.417Z,21.40
2019-04-01T15:35:08.682Z,22.20
2019-04-01T15:37:37.972Z,22.40
2019-04-01T15:40:08.905Z,22.90
2019-04-01T15:42:38.228Z,22.90
2019-04-01T15:45:07.960Z,22.60
2019-04-01T15:47:38.267Z,22.30
2019-04-01T15:50:09.954Z,21.00
2019-04-01T15:52:39.413Z,21.00
2019-04-01T15:55:09.198Z,21.40
2019-04-01T15:57:38.625Z,21.60
2019-04-01T16:00:08.539Z,21.90
2019-04-01T16:02:37.856Z,21.20
2019-04-01T16:05:08.319Z,20.70
2019-04-01T16:07:37.626Z,20.20
2019-04-01T16:10:07.292Z,20.60
2019-04-01T16:12:36.592Z,21.40
2019-04-01T16:15:09.001Z,21.50
2019-04-01T16:17:39.496Z,21.90
2019-04-01T16:20:08.952Z,22.10
2019-04-01T16:22:38.251Z,22.10
2019-04-01T16:25:07.891Z,22.80
2019-04-01T16:27:37.200Z,22.00
2019-04-01T16:30:08.911Z,21.40
2019-04-01T16:32:38.332Z,21.30
2019-04-01T16:35:07.969Z,19.80
2019-04-01T16:37:37.278Z,18.10
2019-04-01T16:40:07.520Z,16.90
2019-04-01T16:42:36.815Z,15.80
2019-04-01T16:45:08.640Z,14.90
2019-04-01T16:47:38.103Z,14.40
2019-04-01T16:50:08.145Z,14.20
2019-04-01T16:52:37.456Z,13.90
2019-04-01T16:55:08.596Z,13.80
2019-04-01T16:57:37.908Z,13.40
2019-04-01T17:00:14.298Z,13.30
2019-04-01T17:02:43.181Z,13.20
2019-04-01T17:05:12.712Z,13.10
2019-04-01T17:07:42.012Z,12.90
2019-04-01T17:10:14.471Z,12.70
2019-04-01T17:12:43.844Z,12.50
2019-04-01T17:15:13.212Z,12.40
2019-04-01T17:17:42.545Z,12.30
2019-04-01T17:20:13.283Z,12.10
2019-04-01T17:22:44.572Z,11.90
2019-04-01T17:25:14.385Z,11.90
2019-04-01T17:27:43.679Z,11.70
2019-04-01T17:30:13.619Z,11.60
2019-04-01T17:32:42.940Z,11.40
2019-04-01T17:35:13.188Z,11.30
2019-04-01T17:37:42.894Z,11.30
2019-04-01T17:40:12.646Z,11.20
2019-04-01T17:43:02.236Z,11.10
2019-04-01T17:45:37.547Z,11.00
2019-04-01T17:48:07.424Z,10.80
2019-04-01T17:50:36.893Z,10.60
2019-04-01T17:53:07.036Z,10.60
2019-04-01T17:55:37.327Z,10.50
2019-04-01T17:58:07.173Z,10.40
2019-04-01T18:00:38.124Z,10.40
2019-04-01T18:03:09.353Z,10.30
2019-04-01T18:05:38.424Z,10.20
2019-04-01T18:08:07.726Z,10.00
2019-04-01T18:10:37.068Z,9.90
2019-04-01T18:13:06.360Z,9.90
2019-04-01T18:15:35.654Z,9.80
2019-04-01T18:18:05.025Z,9.60
2019-04-01T18:20:34.438Z,9.50
2019-04-01T18:23:05.487Z,9.40
2019-04-01T18:25:34.788Z,9.30
2019-04-01T18:28:04.083Z,9.30
2019-04-01T18:30:35.045Z,9.10
2019-04-01T18:33:04.543Z,8.90
2019-04-01T18:35:35.017Z,8.80
2019-04-01T18:38:04.351Z,8.80
2019-04-01T18:40:35.572Z,8.80
2019-04-01T18:43:05.843Z,8.80
2019-04-01T18:45:35.162Z,8.80
2019-04-01T18:48:04.633Z,8.80
2019-04-01T18:50:33.943Z,8.80
2019-04-01T18:53:03.252Z,8.70
2019-04-01T18:55:34.156Z,8.60
2019-04-01T18:58:03.452Z,8.50
2019-04-01T19:00:33.084Z,8.40
2019-04-01T19:03:02.479Z,8.30
2019-04-01T19:05:31.784Z,8.30
2019-04-01T19:08:01.095Z,8.20
2019-04-01T19:10:30.392Z,8.10
2019-04-01T19:13:06.582Z,8.00
2019-04-01T19:15:31.372Z,8.10
2019-04-01T19:18:02.375Z,8.00
2019-04-01T19:20:31.665Z,8.10
2019-04-01T19:23:01.985Z,8.10
2019-04-01T19:25:32.352Z,8.10
2019-04-01T19:28:02.273Z,8.00
2019-04-01T19:30:31.570Z,8.00
2019-04-01T19:33:00.872Z,8.00
2019-04-01T19:35:30.173Z,8.00
2019-04-01T19:37:59.482Z,8.00
2019-04-01T19:40:29.755Z,8.00
2019-04-01T19:42:59.058Z,8.00
2019-04-01T19:45:28.424Z,7.90
2019-04-01T19:47:57.720Z,7.90
2019-04-01T19:50:27.008Z,7.90
2019-04-01T19:52:56.312Z,7.80
2019-04-01T19:55:25.679Z,7.80
2019-04-01T19:57:56.128Z,7.80
2019-04-01T20:00:28.014Z,7.80
2019-04-01T20:02:57.339Z,7.70
2019-04-01T20:05:27.020Z,7.70
2019-04-01T20:07:56.322Z,7.60
2019-04-01T20:10:28.300Z,7.60
2019-04-01T20:12:56.616Z,7.60
2019-04-01T20:15:25.912Z,7.50
2019-04-01T20:17:55.219Z,7.50
2019-04-01T20:20:25.542Z,7.40
2019-04-01T20:22:54.838Z,7.40
2019-04-01T20:25:24.149Z,7.30
2019-04-01T20:27:55.094Z,7.40
2019-04-01T20:30:24.456Z,7.30
2019-04-01T20:32:53.801Z,7.30
2019-04-01T20:35:24.082Z,7.30
2019-04-01T20:37:53.564Z,7.20
2019-04-01T20:40:24.070Z,7.20
2019-04-01T20:42:53.653Z,7.10
2019-04-01T20:45:23.057Z,7.10
2019-04-01T20:47:52.486Z,7.10
2019-04-01T20:50:22.107Z,7.10
2019-04-01T20:52:51.411Z,7.00
2019-04-01T20:55:20.704Z,7.00
2019-04-01T20:57:50.933Z,6.90
2019-04-01T21:00:20.411Z,6.80
2019-04-01T21:02:49.790Z,6.80
2019-04-01T21:05:19.090Z,6.70
2019-04-01T21:07:48.383Z,6.60
2019-04-01T21:10:18.057Z,6.50
2019-04-01T21:12:47.359Z,6.40
2019-04-01T21:15:16.991Z,6.40
2019-04-01T21:17:46.920Z,6.40
2019-04-01T21:20:16.288Z,6.30
2019-04-01T21:22:45.583Z,6.30
2019-04-01T21:25:15.049Z,6.30
2019-04-01T21:27:44.340Z,6.30
2019-04-01T21:30:16.092Z,6.30
2019-04-01T21:32:45.727Z,6.30
2019-04-01T21:35:15.172Z,6.20
2019-04-01T21:37:44.473Z,6.20
2019-04-01T21:40:14.837Z,6.10
2019-04-01T21:42:44.201Z,6.10
2019-04-01T21:45:13.667Z,6.10
2019-04-01T21:47:42.997Z,6.10
2019-04-01T21:50:12.656Z,6.10
2019-04-01T21:52:41.961Z,6.10
2019-04-01T21:55:11.608Z,6.10
2019-04-01T21:57:40.898Z,6.10
2019-04-01T22:00:17.919Z,6.00
2019-04-01T22:02:48.353Z,6.00
2019-04-01T22:05:17.676Z,6.00
2019-04-01T22:07:46.972Z,6.00
2019-04-01T22:10:16.340Z,5.90
2019-04-01T22:12:45.635Z,5.90
2019-04-01T22:15:14.932Z,5.90
2019-04-01T22:17:46.074Z,5.90
2019-04-01T22:20:16.448Z,5.80
2019-04-01T22:22:46.815Z,5.50
2019-04-01T22:25:16.204Z,5.20
2019-04-01T22:27:45.504Z,5.00
2019-04-01T22:30:15.188Z,4.80
2019-04-01T22:32:44.477Z,4.70
2019-04-01T22:35:13.860Z,4.60
2019-04-01T22:37:43.145Z,4.60
2019-04-01T22:40:12.620Z,4.60
2019-04-01T22:42:42.988Z,4.50
2019-04-01T22:45:12.357Z,4.60
2019-04-01T22:47:41.672Z,4.60
2019-04-01T22:50:11.244Z,4.60
2019-04-01T22:52:42.199Z,4.60
2019-04-01T22:55:11.809Z,4.70
2019-04-01T22:57:41.108Z,4.70
2019-04-01T23:00:11.035Z,4.60
2019-04-01T23:02:42.392Z,4.60
2019-04-01T23:05:12.216Z,4.60
2019-04-01T23:07:41.535Z,4.50
2019-04-01T23:10:11.003Z,4.50
2019-04-01T23:12:40.367Z,4.40
2019-04-01T23:15:09.736Z,4.40
2019-04-01T23:17:39.038Z,4.40
2019-04-01T23:20:09.897Z,4.30
2019-04-01T23:22:39.192Z,4.30
2019-04-01T23:25:08.657Z,4.30
2019-04-01T23:27:37.982Z,4.30
2019-04-01T23:30:09.793Z,4.30
2019-04-01T23:32:41.830Z,4.30
2019-04-01T23:35:12.916Z,4.30
2019-04-01T23:37:42.371Z,4.30
2019-04-01T23:40:11.917Z,4.20
2019-04-01T23:42:41.236Z,4.10
2019-04-01T23:45:10.602Z,4.10
2019-04-01T23:47:39.896Z,4.10
2019-04-01T23:50:10.043Z,4.00
2019-04-01T23:52:39.343Z,4.00
2019-04-01T23:55:09.781Z,4.00
2019-04-01T23:57:40.084Z,3.80
